sensor_id;sensor_type;location;lat;lon;timestamp;P1;durP1;ratioP1;P2;durP2;ratioP2
50066;SDS011;35952;52.524;13.340;2023-02-01T00:00:57;26.90;;;6.30;;
50066;SDS011;35952;52.524;13.340;2023-02-01T00:03:22;10.80;;;3.50;;
50066;SDS011;35952;52.524;13.340;2023-02-01T00:05:57;15.00;;;5.67;;
50066;SDS011;35952;52.524;13.340;2023-02-01T00:08:23;24.63;;;4.60;;
50066;SDS011;35952;52.524;13.340;2023-02-01T00:10:57;17.80;;;6.03;;
50066;SDS011;35952;52.524;13.340;2023-02-01T00:13:30;22.23;;;5.57;;
50066;SDS011;35952;52.524;13.340;2023-02-01T00:16:09;16.17;;;5.73;;
50066;SDS011;35952;52.524;13.340;2023-02-01T00:18:41;21.02;;;5.03;;
50066;SDS011;35952;52.524;13.340;2023-02-01T00:21:07;23.17;;;4.80;;
50066;SDS011;35952;52.524;13.340;2023-02-01T00:23:35;16.23;;;4.20;;
50066;SDS011;35952;52.524;13.340;2023-02-01T00:26:01;13.50;;;4.00;;
50066;SDS011;35952;52.524;13.340;2023-02-01T00:28:30;18.73;;;5.20;;
50066;SDS011;35952;52.524;13.340;2023-02-01T00:30:57;15.73;;;3.90;;
50066;SDS011;35952;52.524;13.340;2023-02-01T00:33:27;10.43;;;3.35;;
50066;SDS011;35952;52.524;13.340;2023-02-01T00:36:00;19.87;;;4.17;;
50066;SDS011;35952;52.524;13.340;2023-02-01T00:38:28;20.37;;;3.37;;
50066;SDS011;35952;52.524;13.340;2023-02-01T00:40:54;12.53;;;3.70;;
50066;SDS011;35952;52.524;13.340;2023-02-01T00:43:26;22.63;;;5.53;;
50066;SDS011;35952;52.524;13.340;2023-02-01T00:45:51;10.87;;;3.50;;
50066;SDS011;35952;52.524;13.340;2023-02-01T00:48:17;14.23;;;3.77;;
50066;SDS011;35952;52.524;13.340;2023-02-01T00:50:43;13.07;;;3.10;;
50066;SDS011;35952;52.524;13.340;2023-02-01T00:53:09;11.23;;;3.10;;
50066;SDS011;35952;52.524;13.340;2023-02-01T00:55:35;8.73;;;3.13;;
50066;SDS011;35952;52.524;13.340;2023-02-01T00:58:01;13.23;;;3.83;;
50066;SDS011;35952;52.524;13.340;2023-02-01T01:00:26;14.57;;;3.53;;
50066;SDS011;35952;52.524;13.340;2023-02-01T01:02:52;22.73;;;4.40;;
50066;SDS011;35952;52.524;13.340;2023-02-01T01:05:18;6.43;;;3.37;;
50066;SDS011;35952;52.524;13.340;2023-02-01T01:07:44;17.17;;;3.90;;
50066;SDS011;35952;52.524;13.340;2023-02-01T01:10:10;9.77;;;3.27;;
50066;SDS011;35952;52.524;13.340;2023-02-01T01:12:35;12.43;;;3.20;;
50066;SDS011;35952;52.524;13.340;2023-02-01T01:15:01;15.47;;;4.33;;
50066;SDS011;35952;52.524;13.340;2023-02-01T01:17:27;15.80;;;4.03;;
50066;SDS011;35952;52.524;13.340;2023-02-01T01:19:52;13.23;;;3.40;;
50066;SDS011;35952;52.524;13.340;2023-02-01T01:22:18;11.20;;;2.90;;
50066;SDS011;35952;52.524;13.340;2023-02-01T01:24:43;14.60;;;3.67;;
50066;SDS011;35952;52.524;13.340;2023-02-01T01:27:09;15.60;;;3.97;;
50066;SDS011;35952;52.524;13.340;2023-02-01T01:29:34;7.87;;;3.00;;
50066;SDS011;35952;52.524;13.340;2023-02-01T01:32:00;15.43;;;3.20;;
50066;SDS011;35952;52.524;13.340;2023-02-01T01:34:25;9.80;;;3.67;;
50066;SDS011;35952;52.524;13.340;2023-02-01T01:36:51;8.83;;;2.83;;
50066;SDS011;35952;52.524;13.340;2023-02-01T01:39:16;12.70;;;3.50;;
50066;SDS011;35952;52.524;13.340;2023-02-01T01:41:42;7.83;;;3.20;;
50066;SDS011;35952;52.524;13.340;2023-02-01T01:47:11;12.10;;;3.00;;
50066;SDS011;35952;52.524;13.340;2023-02-01T01:49:39;15.15;;;3.15;;
50066;SDS011;35952;52.524;13.340;2023-02-01T01:52:04;15.53;;;4.20;;
50066;SDS011;35952;52.524;13.340;2023-02-01T01:54:32;15.33;;;4.23;;
50066;SDS011;35952;52.524;13.340;2023-02-01T01:57:24;15.90;;;3.72;;
50066;SDS011;35952;52.524;13.340;2023-02-01T02:00:09;16.23;;;4.00;;
50066;SDS011;35952;52.524;13.340;2023-02-01T02:02:36;8.65;;;4.95;;
50066;SDS011;35952;52.524;13.340;2023-02-01T02:05:03;14.50;;;4.50;;
50066;SDS011;35952;52.524;13.340;2023-02-01T02:07:31;10.85;;;3.67;;
50066;SDS011;35952;52.524;13.340;2023-02-01T02:10:00;12.70;;;3.80;;
50066;SDS011;35952;52.524;13.340;2023-02-01T02:12:30;14.33;;;6.20;;
50066;SDS011;35952;52.524;13.340;2023-02-01T02:14:57;13.47;;;3.40;;
50066;SDS011;35952;52.524;13.340;2023-02-01T02:17:35;11.33;;;3.40;;
50066;SDS011;35952;52.524;13.340;2023-02-01T02:20:30;11.30;;;3.23;;
50066;SDS011;35952;52.524;13.340;2023-02-01T02:23:22;8.80;;;3.00;;
50066;SDS011;35952;52.524;13.340;2023-02-01T02:26:28;17.13;;;4.27;;
50066;SDS011;35952;52.524;13.340;2023-02-01T02:32:08;18.10;;;6.20;;
50066;SDS011;35952;52.524;13.340;2023-02-01T02:34:57;12.83;;;4.10;;
50066;SDS011;35952;52.524;13.340;2023-02-01T02:37:43;15.07;;;3.63;;
50066;SDS011;35952;52.524;13.340;2023-02-01T02:40:28;14.53;;;3.77;;
50066;SDS011;35952;52.524;13.340;2023-02-01T02:46:01;9.70;;;3.20;;
50066;SDS011;35952;52.524;13.340;2023-02-01T02:48:51;10.00;;;3.25;;
50066;SDS011;35952;52.524;13.340;2023-02-01T02:51:49;14.20;;;4.00;;
50066;SDS011;35952;52.524;13.340;2023-02-01T02:54:36;24.10;;;4.00;;
50066;SDS011;35952;52.524;13.340;2023-02-01T02:57:15;13.70;;;4.77;;
50066;SDS011;35952;52.524;13.340;2023-02-01T03:00:08;16.83;;;4.00;;
50066;SDS011;35952;52.524;13.340;2023-02-01T03:02:55;11.17;;;4.07;;
50066;SDS011;35952;52.524;13.340;2023-02-01T03:05:43;13.60;;;4.13;;
50066;SDS011;35952;52.524;13.340;2023-02-01T03:08:14;16.67;;;4.23;;
50066;SDS011;35952;52.524;13.340;2023-02-01T03:11:04;9.80;;;4.07;;
50066;SDS011;35952;52.524;13.340;2023-02-01T03:13:38;14.27;;;4.37;;
50066;SDS011;35952;52.524;13.340;2023-02-01T03:16:12;11.80;;;4.50;;
50066;SDS011;35952;52.524;13.340;2023-02-01T03:18:49;15.80;;;4.13;;
50066;SDS011;35952;52.524;13.340;2023-02-01T03:21:23;12.60;;;3.70;;
50066;SDS011;35952;52.524;13.340;2023-02-01T03:23:53;21.07;;;5.13;;
50066;SDS011;35952;52.524;13.340;2023-02-01T03:26:24;21.80;;;4.47;;
50066;SDS011;35952;52.524;13.340;2023-02-01T03:28:55;16.93;;;3.93;;
50066;SDS011;35952;52.524;13.340;2023-02-01T03:31:25;24.30;;;6.67;;
50066;SDS011;35952;52.524;13.340;2023-02-01T03:33:53;13.57;;;4.07;;
50066;SDS011;35952;52.524;13.340;2023-02-01T03:36:55;23.13;;;5.03;;
50066;SDS011;35952;52.524;13.340;2023-02-01T03:39:17;10.97;;;3.93;;
50066;SDS011;35952;52.524;13.340;2023-02-01T03:44:21;32.33;;;6.57;;
50066;SDS011;35952;52.524;13.340;2023-02-01T03:52:22;20.37;;;4.00;;
50066;SDS011;35952;52.524;13.340;2023-02-01T03:55:02;12.47;;;4.40;;
50066;SDS011;35952;52.524;13.340;2023-02-01T03:57:31;16.00;;;3.87;;
50066;SDS011;35952;52.524;13.340;2023-02-01T04:00:03;11.20;;;3.30;;
50066;SDS011;35952;52.524;13.340;2023-02-01T04:02:39;23.10;;;4.57;;
50066;SDS011;35952;52.524;13.340;2023-02-01T04:05:04;9.33;;;4.23;;
50066;SDS011;35952;52.524;13.340;2023-02-01T04:07:30;25.70;;;4.53;;
50066;SDS011;35952;52.524;13.340;2023-02-01T04:09:55;19.60;;;5.30;;
50066;SDS011;35952;52.524;13.340;2023-02-01T04:12:21;14.70;;;4.10;;
50066;SDS011;35952;52.524;13.340;2023-02-01T04:14:47;19.60;;;4.27;;
50066;SDS011;35952;52.524;13.340;2023-02-01T04:17:12;17.13;;;4.10;;
50066;SDS011;35952;52.524;13.340;2023-02-01T04:19:38;15.67;;;4.27;;
50066;SDS011;35952;52.524;13.340;2023-02-01T04:22:03;12.30;;;3.97;;
50066;SDS011;35952;52.524;13.340;2023-02-01T04:24:29;12.97;;;3.60;;
50066;SDS011;35952;52.524;13.340;2023-02-01T04:26:54;12.87;;;4.27;;
50066;SDS011;35952;52.524;13.340;2023-02-01T04:29:20;13.70;;;4.20;;
50066;SDS011;35952;52.524;13.340;2023-02-01T04:31:45;20.10;;;4.87;;
50066;SDS011;35952;52.524;13.340;2023-02-01T04:34:11;16.50;;;5.40;;
50066;SDS011;35952;52.524;13.340;2023-02-01T04:36:36;18.97;;;4.53;;
50066;SDS011;35952;52.524;13.340;2023-02-01T04:39:02;13.00;;;4.00;;
50066;SDS011;35952;52.524;13.340;2023-02-01T04:41:28;20.53;;;6.53;;
50066;SDS011;35952;52.524;13.340;2023-02-01T04:43:53;20.13;;;4.17;;
50066;SDS011;35952;52.524;13.340;2023-02-01T04:46:19;10.50;;;3.30;;
50066;SDS011;35952;52.524;13.340;2023-02-01T04:48:44;19.20;;;4.13;;
50066;SDS011;35952;52.524;13.340;2023-02-01T04:51:10;16.83;;;3.87;;
50066;SDS011;35952;52.524;13.340;2023-02-01T04:53:36;15.23;;;4.50;;
50066;SDS011;35952;52.524;13.340;2023-02-01T04:56:01;22.53;;;5.83;;
50066;SDS011;35952;52.524;13.340;2023-02-01T04:58:27;12.50;;;3.30;;
50066;SDS011;35952;52.524;13.340;2023-02-01T05:00:52;15.27;;;4.10;;
50066;SDS011;35952;52.524;13.340;2023-02-01T05:03:18;19.47;;;4.07;;
50066;SDS011;35952;52.524;13.340;2023-02-01T05:05:44;14.57;;;3.90;;
50066;SDS011;35952;52.524;13.340;2023-02-01T05:08:09;27.93;;;6.17;;
50066;SDS011;35952;52.524;13.340;2023-02-01T05:10:35;19.30;;;5.00;;
50066;SDS011;35952;52.524;13.340;2023-02-01T05:13:00;12.40;;;3.73;;
50066;SDS011;35952;52.524;13.340;2023-02-01T05:15:44;16.23;;;4.10;;
50066;SDS011;35952;52.524;13.340;2023-02-01T05:18:11;18.70;;;4.43;;
50066;SDS011;35952;52.524;13.340;2023-02-01T05:20:36;14.17;;;4.37;;
50066;SDS011;35952;52.524;13.340;2023-02-01T05:23:02;12.97;;;4.83;;
50066;SDS011;35952;52.524;13.340;2023-02-01T05:25:28;20.17;;;4.90;;
50066;SDS011;35952;52.524;13.340;2023-02-01T05:27:53;9.70;;;3.60;;
50066;SDS011;35952;52.524;13.340;2023-02-01T05:30:19;24.50;;;6.43;;
50066;SDS011;35952;52.524;13.340;2023-02-01T05:32:44;12.90;;;4.57;;
50066;SDS011;35952;52.524;13.340;2023-02-01T05:35:10;18.00;;;4.70;;
50066;SDS011;35952;52.524;13.340;2023-02-01T05:37:35;19.93;;;4.50;;
50066;SDS011;35952;52.524;13.340;2023-02-01T05:40:01;17.60;;;4.60;;
50066;SDS011;35952;52.524;13.340;2023-02-01T05:42:26;16.17;;;5.93;;
50066;SDS011;35952;52.524;13.340;2023-02-01T05:44:52;12.80;;;4.50;;
50066;SDS011;35952;52.524;13.340;2023-02-01T05:47:17;13.10;;;4.13;;
50066;SDS011;35952;52.524;13.340;2023-02-01T05:49:43;17.53;;;5.03;;
50066;SDS011;35952;52.524;13.340;2023-02-01T05:52:08;19.43;;;4.13;;
50066;SDS011;35952;52.524;13.340;2023-02-01T05:54:34;9.40;;;3.73;;
50066;SDS011;35952;52.524;13.340;2023-02-01T05:57:00;14.83;;;4.03;;
50066;SDS011;35952;52.524;13.340;2023-02-01T05:59:25;13.60;;;4.57;;
50066;SDS011;35952;52.524;13.340;2023-02-01T06:01:51;8.53;;;4.60;;
50066;SDS011;35952;52.524;13.340;2023-02-01T06:04:16;12.20;;;5.33;;
50066;SDS011;35952;52.524;13.340;2023-02-01T06:06:42;15.63;;;4.50;;
50066;SDS011;35952;52.524;13.340;2023-02-01T06:09:07;15.40;;;4.43;;
50066;SDS011;35952;52.524;13.340;2023-02-01T06:11:33;12.70;;;5.07;;
50066;SDS011;35952;52.524;13.340;2023-02-01T06:13:58;20.97;;;4.83;;
50066;SDS011;35952;52.524;13.340;2023-02-01T06:16:24;9.53;;;4.10;;
50066;SDS011;35952;52.524;13.340;2023-02-01T06:18:50;15.60;;;4.77;;
50066;SDS011;35952;52.524;13.340;2023-02-01T06:21:15;17.47;;;7.27;;
50066;SDS011;35952;52.524;13.340;2023-02-01T06:23:48;11.77;;;4.33;;
50066;SDS011;35952;52.524;13.340;2023-02-01T06:26:15;24.07;;;4.90;;
50066;SDS011;35952;52.524;13.340;2023-02-01T06:28:42;11.40;;;4.90;;
50066;SDS011;35952;52.524;13.340;2023-02-01T06:31:08;13.20;;;4.03;;
50066;SDS011;35952;52.524;13.340;2023-02-01T06:33:34;18.13;;;5.00;;
50066;SDS011;35952;52.524;13.340;2023-02-01T06:36:00;13.87;;;4.37;;
50066;SDS011;35952;52.524;13.340;2023-02-01T06:38:28;16.80;;;6.57;;
50066;SDS011;35952;52.524;13.340;2023-02-01T06:40:55;17.53;;;4.33;;
50066;SDS011;35952;52.524;13.340;2023-02-01T06:43:22;13.73;;;3.80;;
50066;SDS011;35952;52.524;13.340;2023-02-01T06:45:49;20.90;;;5.03;;
50066;SDS011;35952;52.524;13.340;2023-02-01T06:48:14;17.37;;;4.80;;
50066;SDS011;35952;52.524;13.340;2023-02-01T06:50:40;8.43;;;3.53;;
50066;SDS011;35952;52.524;13.340;2023-02-01T06:53:05;12.80;;;4.17;;
50066;SDS011;35952;52.524;13.340;2023-02-01T06:55:31;13.17;;;4.93;;
50066;SDS011;35952;52.524;13.340;2023-02-01T06:57:56;12.13;;;4.80;;
50066;SDS011;35952;52.524;13.340;2023-02-01T07:00:22;19.97;;;4.83;;
50066;SDS011;35952;52.524;13.340;2023-02-01T07:02:48;12.10;;;4.30;;
50066;SDS011;35952;52.524;13.340;2023-02-01T07:05:13;18.50;;;4.73;;
50066;SDS011;35952;52.524;13.340;2023-02-01T07:07:39;21.33;;;5.33;;
50066;SDS011;35952;52.524;13.340;2023-02-01T07:10:05;13.00;;;4.27;;
50066;SDS011;35952;52.524;13.340;2023-02-01T07:12:31;13.77;;;4.37;;
50066;SDS011;35952;52.524;13.340;2023-02-01T07:14:56;14.10;;;5.30;;
50066;SDS011;35952;52.524;13.340;2023-02-01T07:17:22;24.90;;;6.20;;
50066;SDS011;35952;52.524;13.340;2023-02-01T07:19:47;16.50;;;4.90;;
50066;SDS011;35952;52.524;13.340;2023-02-01T07:22:17;18.80;;;5.10;;
50066;SDS011;35952;52.524;13.340;2023-02-01T07:24:43;13.97;;;4.80;;
50066;SDS011;35952;52.524;13.340;2023-02-01T07:27:08;11.83;;;4.40;;
50066;SDS011;35952;52.524;13.340;2023-02-01T07:29:34;11.50;;;5.40;;
50066;SDS011;35952;52.524;13.340;2023-02-01T07:31:59;11.97;;;5.50;;
50066;SDS011;35952;52.524;13.340;2023-02-01T07:34:27;18.80;;;5.50;;
50066;SDS011;35952;52.524;13.340;2023-02-01T07:36:52;22.60;;;4.77;;
50066;SDS011;35952;52.524;13.340;2023-02-01T07:39:18;13.17;;;4.30;;
50066;SDS011;35952;52.524;13.340;2023-02-01T07:41:43;18.70;;;5.53;;
50066;SDS011;35952;52.524;13.340;2023-02-01T07:44:10;19.37;;;4.80;;
50066;SDS011;35952;52.524;13.340;2023-02-01T07:46:35;15.27;;;6.00;;
50066;SDS011;35952;52.524;13.340;2023-02-01T07:49:01;8.97;;;4.30;;
50066;SDS011;35952;52.524;13.340;2023-02-01T07:51:27;9.30;;;4.27;;
50066;SDS011;35952;52.524;13.340;2023-02-01T07:53:52;10.90;;;5.10;;
50066;SDS011;35952;52.524;13.340;2023-02-01T07:56:19;12.80;;;5.23;;
50066;SDS011;35952;52.524;13.340;2023-02-01T07:58:50;13.70;;;4.67;;
50066;SDS011;35952;52.524;13.340;2023-02-01T08:01:18;9.27;;;5.32;;
50066;SDS011;35952;52.524;13.340;2023-02-01T08:03:49;15.33;;;6.40;;
50066;SDS011;35952;52.524;13.340;2023-02-01T08:06:24;12.80;;;5.47;;
50066;SDS011;35952;52.524;13.340;2023-02-01T08:08:51;10.77;;;5.60;;
50066;SDS011;35952;52.524;13.340;2023-02-01T08:11:17;10.75;;;4.70;;
50066;SDS011;35952;52.524;13.340;2023-02-01T08:13:45;14.48;;;6.03;;
50066;SDS011;35952;52.524;13.340;2023-02-01T08:16:11;17.87;;;8.10;;
50066;SDS011;35952;52.524;13.340;2023-02-01T08:18:38;14.73;;;5.80;;
50066;SDS011;35952;52.524;13.340;2023-02-01T08:23:32;21.73;;;6.63;;
50066;SDS011;35952;52.524;13.340;2023-02-01T08:26:11;14.93;;;7.50;;
50066;SDS011;35952;52.524;13.340;2023-02-01T08:28:43;10.50;;;4.80;;
50066;SDS011;35952;52.524;13.340;2023-02-01T08:31:13;11.52;;;5.30;;
50066;SDS011;35952;52.524;13.340;2023-02-01T08:33:40;14.80;;;5.33;;
50066;SDS011;35952;52.524;13.340;2023-02-01T08:36:07;11.23;;;5.73;;
50066;SDS011;35952;52.524;13.340;2023-02-01T08:38:37;12.02;;;6.05;;
50066;SDS011;35952;52.524;13.340;2023-02-01T08:41:08;12.40;;;5.63;;
50066;SDS011;35952;52.524;13.340;2023-02-01T08:43:38;12.80;;;6.00;;
50066;SDS011;35952;52.524;13.340;2023-02-01T08:46:05;16.75;;;4.68;;
50066;SDS011;35952;52.524;13.340;2023-02-01T08:48:31;9.37;;;4.83;;
50066;SDS011;35952;52.524;13.340;2023-02-01T08:50:57;8.80;;;6.17;;
50066;SDS011;35952;52.524;13.340;2023-02-01T08:53:25;10.60;;;5.65;;
50066;SDS011;35952;52.524;13.340;2023-02-01T08:55:50;15.17;;;6.03;;
50066;SDS011;35952;52.524;13.340;2023-02-01T08:58:16;13.20;;;6.87;;
50066;SDS011;35952;52.524;13.340;2023-02-01T09:00:42;9.50;;;6.33;;
50066;SDS011;35952;52.524;13.340;2023-02-01T09:03:10;7.72;;;4.78;;
50066;SDS011;35952;52.524;13.340;2023-02-01T09:05:36;9.90;;;4.67;;
50066;SDS011;35952;52.524;13.340;2023-02-01T09:08:01;5.73;;;3.53;;
50066;SDS011;35952;52.524;13.340;2023-02-01T09:10:27;10.30;;;4.40;;
50066;SDS011;35952;52.524;13.340;2023-02-01T09:12:52;15.73;;;5.60;;
50066;SDS011;35952;52.524;13.340;2023-02-01T09:15:18;5.60;;;3.10;;
50066;SDS011;35952;52.524;13.340;2023-02-01T09:17:43;5.50;;;4.30;;
50066;SDS011;35952;52.524;13.340;2023-02-01T09:20:09;8.40;;;3.87;;
50066;SDS011;35952;52.524;13.340;2023-02-01T09:22:35;8.55;;;2.90;;
50066;SDS011;35952;52.524;13.340;2023-02-01T09:25:01;2.90;;;2.70;;
50066;SDS011;35952;52.524;13.340;2023-02-01T09:27:26;4.60;;;3.77;;
50066;SDS011;35952;52.524;13.340;2023-02-01T09:29:52;5.23;;;3.43;;
50066;SDS011;35952;52.524;13.340;2023-02-01T09:32:18;3.33;;;2.63;;
50066;SDS011;35952;52.524;13.340;2023-02-01T09:34:48;5.03;;;3.10;;
50066;SDS011;35952;52.524;13.340;2023-02-01T09:37:14;7.87;;;3.37;;
50066;SDS011;35952;52.524;13.340;2023-02-01T09:39:40;5.67;;;2.90;;
50066;SDS011;35952;52.524;13.340;2023-02-01T09:47:21;5.03;;;3.65;;
50066;SDS011;35952;52.524;13.340;2023-02-01T09:49:51;7.03;;;3.10;;
50066;SDS011;35952;52.524;13.340;2023-02-01T09:52:33;10.27;;;2.90;;
50066;SDS011;35952;52.524;13.340;2023-02-01T09:55:12;4.75;;;2.65;;
50066;SDS011;35952;52.524;13.340;2023-02-01T09:58:02;6.65;;;3.97;;
50066;SDS011;35952;52.524;13.340;2023-02-01T10:00:36;3.70;;;2.78;;
50066;SDS011;35952;52.524;13.340;2023-02-01T10:03:03;4.90;;;2.20;;
50066;SDS011;35952;52.524;13.340;2023-02-01T10:05:43;3.57;;;2.10;;
50066;SDS011;35952;52.524;13.340;2023-02-01T10:16:57;3.95;;;2.05;;
50066;SDS011;35952;52.524;13.340;2023-02-01T10:19:44;4.60;;;2.10;;
50066;SDS011;35952;52.524;13.340;2023-02-01T10:22:25;2.40;;;2.30;;
50066;SDS011;35952;52.524;13.340;2023-02-01T10:24:56;2.00;;;1.80;;
50066;SDS011;35952;52.524;13.340;2023-02-01T10:27:43;3.60;;;2.17;;
50066;SDS011;35952;52.524;13.340;2023-02-01T10:32:38;8.73;;;2.13;;
50066;SDS011;35952;52.524;13.340;2023-02-01T10:35:11;2.67;;;1.73;;
50066;SDS011;35952;52.524;13.340;2023-02-01T10:37:41;4.00;;;2.73;;
50066;SDS011;35952;52.524;13.340;2023-02-01T10:42:50;4.23;;;2.23;;
50066;SDS011;35952;52.524;13.340;2023-02-01T10:45:20;5.20;;;2.23;;
50066;SDS011;35952;52.524;13.340;2023-02-01T10:47:48;9.20;;;2.27;;
50066;SDS011;35952;52.524;13.340;2023-02-01T10:50:24;2.30;;;2.10;;
50066;SDS011;35952;52.524;13.340;2023-02-01T10:53:03;5.63;;;2.20;;
50066;SDS011;35952;52.524;13.340;2023-02-01T10:56:32;6.73;;;2.63;;
50066;SDS011;35952;52.524;13.340;2023-02-01T10:58:33;2.92;;;2.40;;
50066;SDS011;35952;52.524;13.340;2023-02-01T11:01:07;6.37;;;3.23;;
50066;SDS011;35952;52.524;13.340;2023-02-01T11:06:31;5.13;;;2.20;;
50066;SDS011;35952;52.524;13.340;2023-02-01T11:09:01;7.10;;;2.80;;
50066;SDS011;35952;52.524;13.340;2023-02-01T11:11:52;4.70;;;2.47;;
50066;SDS011;35952;52.524;13.340;2023-02-01T11:14:41;4.77;;;2.70;;
50066;SDS011;35952;52.524;13.340;2023-02-01T11:17:16;5.00;;;2.77;;
50066;SDS011;35952;52.524;13.340;2023-02-01T11:20:00;3.80;;;2.53;;
50066;SDS011;35952;52.524;13.340;2023-02-01T11:22:30;6.57;;;2.17;;
50066;SDS011;35952;52.524;13.340;2023-02-01T11:24:56;3.70;;;2.30;;
50066;SDS011;35952;52.524;13.340;2023-02-01T11:27:23;8.90;;;2.60;;
50066;SDS011;35952;52.524;13.340;2023-02-01T11:29:51;6.60;;;3.10;;
50066;SDS011;35952;52.524;13.340;2023-02-01T11:32:19;4.20;;;3.40;;
50066;SDS011;35952;52.524;13.340;2023-02-01T11:34:53;6.80;;;3.57;;
50066;SDS011;35952;52.524;13.340;2023-02-01T11:37:38;7.53;;;2.70;;
50066;SDS011;35952;52.524;13.340;2023-02-01T11:42:52;8.57;;;3.13;;
50066;SDS011;35952;52.524;13.340;2023-02-01T11:45:20;4.90;;;3.00;;
50066;SDS011;35952;52.524;13.340;2023-02-01T11:47:51;7.23;;;2.90;;
50066;SDS011;35952;52.524;13.340;2023-02-01T11:50:19;11.23;;;2.90;;
50066;SDS011;35952;52.524;13.340;2023-02-01T11:53:02;8.13;;;3.83;;
50066;SDS011;35952;52.524;13.340;2023-02-01T11:55:53;4.67;;;2.50;;
50066;SDS011;35952;52.524;13.340;2023-02-01T12:12:25;6.70;;;2.63;;
50066;SDS011;35952;52.524;13.340;2023-02-01T12:18:03;3.20;;;2.70;;
50066;SDS011;35952;52.524;13.340;2023-02-01T12:21:24;8.17;;;2.73;;
50066;SDS011;35952;52.524;13.340;2023-02-01T12:24:22;8.53;;;2.80;;
50066;SDS011;35952;52.524;13.340;2023-02-01T12:27:14;13.83;;;2.83;;
50066;SDS011;35952;52.524;13.340;2023-02-01T12:35:54;6.83;;;2.90;;
50066;SDS011;35952;52.524;13.340;2023-02-01T12:38:36;7.90;;;3.90;;
50066;SDS011;35952;52.524;13.340;2023-02-01T12:43:48;6.40;;;3.10;;
50066;SDS011;35952;52.524;13.340;2023-02-01T12:46:27;10.03;;;5.63;;
50066;SDS011;35952;52.524;13.340;2023-02-01T12:49:18;4.30;;;2.33;;
50066;SDS011;35952;52.524;13.340;2023-02-01T12:51:54;7.50;;;3.33;;
50066;SDS011;35952;52.524;13.340;2023-02-01T12:57:04;7.10;;;3.30;;
50066;SDS011;35952;52.524;13.340;2023-02-01T12:59:40;6.43;;;2.77;;
50066;SDS011;35952;52.524;13.340;2023-02-01T13:02:14;4.20;;;2.73;;
50066;SDS011;35952;52.524;13.340;2023-02-01T13:05:12;7.90;;;2.97;;
50066;SDS011;35952;52.524;13.340;2023-02-01T13:07:48;7.40;;;2.63;;
50066;SDS011;35952;52.524;13.340;2023-02-01T13:13:12;17.57;;;3.47;;
50066;SDS011;35952;52.524;13.340;2023-02-01T13:15:58;6.20;;;2.20;;
50066;SDS011;35952;52.524;13.340;2023-02-01T13:18:43;8.20;;;2.43;;
50066;SDS011;35952;52.524;13.340;2023-02-01T13:21:18;7.10;;;2.73;;
50066;SDS011;35952;52.524;13.340;2023-02-01T13:23:49;13.07;;;3.23;;
50066;SDS011;35952;52.524;13.340;2023-02-01T13:26:17;5.90;;;3.10;;
50066;SDS011;35952;52.524;13.340;2023-02-01T13:28:44;11.60;;;2.93;;
50066;SDS011;35952;52.524;13.340;2023-02-01T13:39:51;6.40;;;2.70;;
50066;SDS011;35952;52.524;13.340;2023-02-01T13:42:43;9.10;;;2.87;;
50066;SDS011;35952;52.524;13.340;2023-02-01T13:45:19;9.43;;;2.97;;
50066;SDS011;35952;52.524;13.340;2023-02-01T13:47:48;14.63;;;4.67;;
50066;SDS011;35952;52.524;13.340;2023-02-01T13:50:30;5.10;;;2.73;;
50066;SDS011;35952;52.524;13.340;2023-02-01T13:53:11;6.47;;;2.57;;
50066;SDS011;35952;52.524;13.340;2023-02-01T13:55:45;6.97;;;2.73;;
50066;SDS011;35952;52.524;13.340;2023-02-01T13:58:36;8.73;;;3.20;;
50066;SDS011;35952;52.524;13.340;2023-02-01T14:03:49;7.53;;;2.83;;
50066;SDS011;35952;52.524;13.340;2023-02-01T14:11:38;11.60;;;4.07;;
50066;SDS011;35952;52.524;13.340;2023-02-01T14:16:43;5.80;;;2.90;;
50066;SDS011;35952;52.524;13.340;2023-02-01T14:19:29;10.20;;;3.47;;
50066;SDS011;35952;52.524;13.340;2023-02-01T14:21:58;9.07;;;3.30;;
50066;SDS011;35952;52.524;13.340;2023-02-01T14:24:32;16.27;;;5.00;;
50066;SDS011;35952;52.524;13.340;2023-02-01T14:27:00;8.83;;;3.43;;
50066;SDS011;35952;52.524;13.340;2023-02-01T14:29:38;14.73;;;6.23;;
50066;SDS011;35952;52.524;13.340;2023-02-01T14:32:11;8.33;;;4.17;;
50066;SDS011;35952;52.524;13.340;2023-02-01T14:47:43;8.73;;;3.53;;
50066;SDS011;35952;52.524;13.340;2023-02-01T14:55:49;12.37;;;3.80;;
50066;SDS011;35952;52.524;13.340;2023-02-01T15:06:32;7.87;;;3.17;;
50066;SDS011;35952;52.524;13.340;2023-02-01T15:09:16;8.80;;;3.50;;
50066;SDS011;35952;52.524;13.340;2023-02-01T15:12:14;7.10;;;3.37;;
50066;SDS011;35952;52.524;13.340;2023-02-01T15:15:03;9.27;;;4.30;;
50066;SDS011;35952;52.524;13.340;2023-02-01T15:17:40;5.27;;;2.50;;
50066;SDS011;35952;52.524;13.340;2023-02-01T15:20:13;8.30;;;3.50;;
50066;SDS011;35952;52.524;13.340;2023-02-01T15:22:38;9.00;;;2.90;;
50066;SDS011;35952;52.524;13.340;2023-02-01T15:25:04;4.67;;;2.90;;
50066;SDS011;35952;52.524;13.340;2023-02-01T15:27:31;4.03;;;2.53;;
50066;SDS011;35952;52.524;13.340;2023-02-01T15:30:08;3.43;;;2.97;;
50066;SDS011;35952;52.524;13.340;2023-02-01T15:32:41;3.87;;;2.83;;
50066;SDS011;35952;52.524;13.340;2023-02-01T15:38:21;5.17;;;2.87;;
50066;SDS011;35952;52.524;13.340;2023-02-01T15:41:34;3.03;;;2.23;;
50066;SDS011;35952;52.524;13.340;2023-02-01T15:43:49;3.77;;;2.27;;
50066;SDS011;35952;52.524;13.340;2023-02-01T15:46:42;1.97;;;1.60;;
50066;SDS011;35952;52.524;13.340;2023-02-01T15:49:44;1.70;;;1.60;;
50066;SDS011;35952;52.524;13.340;2023-02-01T15:52:16;2.00;;;1.90;;
50066;SDS011;35952;52.524;13.340;2023-02-01T15:54:53;3.80;;;1.55;;
50066;SDS011;35952;52.524;13.340;2023-02-01T15:57:24;3.28;;;1.98;;
50066;SDS011;35952;52.524;13.340;2023-02-01T15:59:56;2.23;;;1.60;;
50066;SDS011;35952;52.524;13.340;2023-02-01T16:02:35;2.30;;;2.10;;
50066;SDS011;35952;52.524;13.340;2023-02-01T16:05:27;2.25;;;2.05;;
50066;SDS011;35952;52.524;13.340;2023-02-01T16:08:03;2.70;;;1.90;;
50066;SDS011;35952;52.524;13.340;2023-02-01T16:10:38;1.83;;;1.73;;
50066;SDS011;35952;52.524;13.340;2023-02-01T16:13:06;4.75;;;1.58;;
50066;SDS011;35952;52.524;13.340;2023-02-01T16:15:32;1.60;;;1.50;;
50066;SDS011;35952;52.524;13.340;2023-02-01T16:18:04;2.38;;;1.40;;
50066;SDS011;35952;52.524;13.340;2023-02-01T16:20:32;2.00;;;1.90;;
50066;SDS011;35952;52.524;13.340;2023-02-01T16:23:00;2.97;;;2.08;;
50066;SDS011;35952;52.524;13.340;2023-02-01T16:25:26;2.40;;;2.20;;
50066;SDS011;35952;52.524;13.340;2023-02-01T16:27:51;2.57;;;2.17;;
50066;SDS011;35952;52.524;13.340;2023-02-01T16:30:17;2.53;;;2.37;;
50066;SDS011;35952;52.524;13.340;2023-02-01T16:32:47;4.65;;;2.53;;
50066;SDS011;35952;52.524;13.340;2023-02-01T16:35:20;2.10;;;1.90;;
50066;SDS011;35952;52.524;13.340;2023-02-01T16:37:48;1.80;;;1.70;;
50066;SDS011;35952;52.524;13.340;2023-02-01T16:40:14;1.90;;;1.60;;
50066;SDS011;35952;52.524;13.340;2023-02-01T16:42:41;3.88;;;2.50;;
50066;SDS011;35952;52.524;13.340;2023-02-01T16:45:06;2.10;;;1.70;;
50066;SDS011;35952;52.524;13.340;2023-02-01T16:47:33;1.98;;;1.60;;
50066;SDS011;35952;52.524;13.340;2023-02-01T16:50:01;3.85;;;1.40;;
50066;SDS011;35952;52.524;13.340;2023-02-01T16:52:26;2.50;;;2.30;;
50066;SDS011;35952;52.524;13.340;2023-02-01T16:54:52;1.87;;;1.77;;